Time;durP1;ratioP1;P1;durP2;ratioP2;P2;SDS_P1;SDS_P2;PMS_P1;PMS_P2;Temp;Humidity;BMP_temperature;BMP_pressure;BME280_temperature;BME280_humidity;BME280_pressure;Samples;Min_cycle;Max_cycle;Signal;HPM_P1;HPM_P2
2022/11/28 00:01:07;;;;;;;4.62;3.10;;;;;;;3.44;70.31;101670.98;1691325;82;21109;-71
2022/11/28 00:03:33;;;;;;;4.97;3.05;;;;;;;3.42;70.21;101676.97;1684303;84;21984;-71
2022/11/28 00:06:05;;;;;;;4.08;2.85;;;;;;;3.44;70.05;101681.55;1691246;82;21199;-71
2022/11/28 00:08:33;;;;;;;4.60;2.80;;;;;;;3.40;70.03;101678.14;1691023;82;21007;-71
2022/11/28 00:11:08;;;;;;;4.42;2.77;;;;;;;3.41;70.07;101681.91;1708210;82;21030;-71
2022/11/28 00:13:35;;;;;;;4.67;3.08;;;;;;;3.44;70.09;101681.55;1692960;83;20995;-72
2022/11/28 00:16:04;;;;;;;4.30;2.92;;;;;;;3.49;70.12;101687.13;1693365;82;22240;-73
2022/11/28 00:18:30;;;;;;;5.17;3.10;;;;;;;3.57;70.10;101693.31;1732795;82;21095;-72
2022/11/28 00:21:01;;;;;;;5.00;3.05;;;;;;;3.59;69.97;101693.95;1705655;82;21013;-72
2022/11/28 00:23:29;;;;;;;4.95;3.22;;;;;;;3.61;69.89;101698.54;1686165;82;21533;-72
2022/11/28 00:26:00;;;;;;;4.03;3.02;;;;;;;3.63;69.77;101703.15;1699031;82;21069;-72
2022/11/28 00:28:27;;;;;;;5.50;3.40;;;;;;;3.63;69.67;101696.55;1682052;84;21091;-72
2022/11/28 00:30:53;;;;;;;5.00;3.00;;;;;;;3.62;69.56;101701.02;1677499;85;21082;-73
2022/11/28 00:33:20;;;;;;;4.30;2.87;;;;;;;3.58;69.23;101703.67;1682256;82;21158;-72
2022/11/28 00:35:47;;;;;;;3.42;2.35;;;;;;;3.58;68.70;101702.86;1720384;82;21115;-73
2022/11/28 00:38:14;;;;;;;4.28;3.00;;;;;;;3.56;68.64;101699.09;1689089;82;21069;-72
2022/11/28 00:40:40;;;;;;;4.90;3.08;;;;;;;3.45;68.91;101700.34;1690341;83;21111;-72
2022/11/28 00:43:07;;;;;;;4.97;2.90;;;;;;;3.48;69.01;101701.81;1686600;82;21102;-72
2022/11/28 00:45:33;;;;;;;4.12;2.98;;;;;;;3.48;68.92;101697.34;1710522;84;21470;-73
2022/11/28 00:48:00;;;;;;;4.15;2.83;;;;;;;3.50;68.97;101696.67;1710187;83;20978;-72
2022/11/28 00:50:26;;;;;;;4.47;3.33;;;;;;;3.53;68.98;101699.46;1689836;82;21110;-73
2022/11/28 00:52:52;;;;;;;5.30;3.10;;;;;;;3.53;68.94;101696.82;1696075;84;21796;-73
2022/11/28 00:55:19;;;;;;;4.45;2.77;;;;;;;3.51;68.92;101693.02;1680981;82;21706;-72
2022/11/28 00:57:46;;;;;;;4.90;3.22;;;;;;;3.53;68.88;101692.34;1691125;82;21506;-72
2022/11/28 01:00:14;;;;;;;5.75;3.40;;;;;;;3.58;68.86;101689.66;1702654;82;21067;-72
2022/11/28 01:02:41;;;;;;;5.17;3.08;;;;;;;3.58;68.84;101689.66;1700655;82;21086;-72
2022/11/28 01:05:08;;;;;;;5.15;3.30;;;;;;;3.58;68.64;101688.33;1708981;82;21073;-74
2022/11/28 01:07:41;;;;;;;4.90;3.27;;;;;;;3.53;68.63;101692.34;1710147;84;20991;-72
2022/11/28 01:10:07;;;;;;;5.45;3.60;;;;;;;3.51;68.58;101695.66;1709943;84;21175;-72
2022/11/28 01:12:35;;;;;;;8.38;3.50;;;;;;;3.48;68.61;101681.50;1699382;82;21030;-71
2022/11/28 01:15:04;;;;;;;5.87;3.50;;;;;;;3.49;68.64;101685.80;1710188;84;21033;-73
2022/11/28 01:17:31;;;;;;;5.35;3.72;;;;;;;3.50;68.71;101690.07;1710390;83;21145;-74
2022/11/28 01:19:57;;;;;;;6.22;3.60;;;;;;;3.64;68.58;101686.28;1712280;82;21186;-73
2022/11/28 01:22:24;;;;;;;6.15;4.08;;;;;;;3.69;68.40;101693.17;1700151;82;21023;-73
2022/11/28 01:24:51;;;;;;;5.22;3.30;;;;;;;3.70;68.38;101686.88;1680413;85;21066;-74
2022/11/28 01:27:17;;;;;;;5.90;3.72;;;;;;;3.72;68.38;101680.92;1680294;85;21703;-74
2022/11/28 01:29:43;;;;;;;5.17;3.55;;;;;;;3.77;68.38;101693.06;1682512;82;21122;-74
2022/11/28 01:32:11;;;;;;;5.45;3.50;;;;;;;3.78;68.34;101689.41;1680297;85;21157;-74
2022/11/28 01:34:38;;;;;;;5.70;3.52;;;;;;;3.76;68.32;101695.40;1690863;84;21012;-73
2022/11/28 01:37:04;;;;;;;5.75;3.80;;;;;;;3.74;68.33;101694.75;1710192;82;21481;-73
2022/11/28 04:43:27;;;;;;;11.12;6.00;;;;;;;3.78;70.82;101755.47;1723948;82;21565;-74
2022/11/28 04:45:59;;;;;;;9.35;5.15;;;;;;;3.71;70.74;101758.53;1680770;85;21114;-73
2022/11/28 04:48:26;;;;;;;9.08;5.53;;;;;;;3.64;70.75;101761.08;1727235;82;21626;-73
2022/11/28 04:51:10;;;;;;;7.55;4.92;;;;;;;3.61;70.79;101767.23;1739728;82;21522;-73
2022/11/28 04:53:57;;;;;;;9.03;5.17;;;;;;;3.58;70.82;101766.27;1739186;82;21505;-73
2022/11/28 04:56:32;;;;;;;10.43;5.53;;;;;;;3.55;70.86;101764.80;1739202;82;21018;-74
2022/11/28 04:58:59;;;;;;;8.35;5.20;;;;;;;3.60;70.93;101766.91;1724357;82;21065;-73
2022/11/28 05:01:28;;;;;;;8.98;5.72;;;;;;;3.62;70.86;101771.50;1739736;82;22129;-74
2022/11/28 05:03:55;;;;;;;8.35;5.40;;;;;;;3.61;70.83;101769.36;1739598;82;20974;-73
2022/11/28 05:06:32;;;;;;;8.53;5.65;;;;;;;3.59;70.80;101770.06;1712789;82;21579;-74
2022/11/28 05:08:58;;;;;;;8.28;5.17;;;;;;;3.52;70.83;101767.33;1740118;82;21049;-73
2022/11/28 05:11:26;;;;;;;9.10;4.97;;;;;;;3.51;70.92;101773.59;1739933;82;21093;-73
2022/11/28 05:13:54;;;;;;;6.28;4.58;;;;;;;3.53;70.91;101771.59;1739531;82;21189;-76
2022/11/28 05:16:21;;;;;;;12.93;5.28;;;;;;;3.57;70.89;101783.94;1714505;82;21066;-72
2022/11/28 05:18:49;;;;;;;8.23;5.67;;;;;;;3.52;70.85;101782.33;1710199;84;21077;-74
2022/11/28 05:21:16;;;;;;;9.80;5.47;;;;;;;3.46;70.90;101785.21;1710373;82;21042;-74
2022/11/28 05:23:43;;;;;;;9.93;6.00;;;;;;;3.37;70.93;101777.03;1710143;84;21066;-74
2022/11/28 05:26:17;;;;;;;9.48;6.35;;;;;;;3.32;71.02;101781.20;1710336;84;21708;-73
2022/11/28 05:28:47;;;;;;;12.25;6.83;;;;;;;3.27;71.14;101783.07;1710320;83;21070;-74
2022/11/28 05:31:15;;;;;;;12.33;7.45;;;;;;;3.27;71.26;101781.75;1710360;84;21050;-73
2022/11/28 05:33:42;;;;;;;13.45;7.90;;;;;;;3.30;71.31;101782.72;1710293;83;21726;-75
2022/11/28 05:36:11;;;;;;;12.90;7.33;;;;;;;3.28;71.31;101785.52;1710330;84;21074;-73
2022/11/28 05:38:37;;;;;;;14.25;7.53;;;;;;;3.28;71.39;101788.16;1713524;82;21232;-73
2022/11/28 05:41:04;;;;;;;13.60;6.97;;;;;;;3.29;71.39;101788.98;1707511;82;21112;-74
2022/11/28 05:43:32;;;;;;;14.53;6.25;;;;;;;3.31;71.42;101796.23;1710159;82;21035;-73
2022/11/28 05:45:58;;;;;;;11.57;6.50;;;;;;;3.33;71.44;101799.53;1698749;84;21032;-75
2022/11/28 05:48:25;;;;;;;13.20;7.17;;;;;;;3.32;71.42;101796.55;1704401;82;21521;-74
2022/11/28 05:50:51;;;;;;;11.03;6.30;;;;;;;3.31;71.43;101814.72;1693749;82;21254;-73
2022/11/28 05:53:18;;;;;;;10.10;6.00;;;;;;;3.27;71.51;101812.12;1681802;84;20991;-73
2022/11/28 05:55:45;;;;;;;12.90;7.12;;;;;;;3.28;71.55;101807.15;1691406;84;20982;-73
2022/11/28 05:58:11;;;;;;;12.53;6.95;;;;;;;3.27;71.61;101810.80;1720296;82;21065;-74
2022/11/28 06:00:37;;;;;;;12.43;7.10;;;;;;;3.26;71.63;101807.34;1718668;83;21046;-73
2022/11/28 06:03:04;;;;;;;13.58;7.12;;;;;;;3.31;71.69;101813.90;1712370;82;21276;-73
2022/11/28 06:16:58;;;;;;;21.97;14.27;;;;;;;4.12;70.75;101822.34;1824330;78;22698;-70
2022/11/28 06:19:25;;;;;;;18.40;11.30;;;;;;;4.07;70.42;101827.85;1774026;79;20926;-70
2022/11/28 06:21:52;;;;;;;19.65;12.35;;;;;;;4.03;70.29;101823.94;1781318;79;21134;-70
2022/11/28 06:24:20;;;;;;;19.67;12.95;;;;;;;3.97;70.19;101827.62;1789929;78;20883;-69
2022/11/28 06:26:47;;;;;;;16.65;11.28;;;;;;;3.96;70.13;101830.45;1808597;78;20995;-69
2022/11/28 06:29:13;;;;;;;19.30;12.13;;;;;;;3.96;70.06;101825.17;1772317;81;21001;-69
2022/11/28 06:31:40;;;;;;;21.68;13.93;;;;;;;3.90;70.01;101827.21;1805345;79;21024;-70
2022/11/28 06:34:09;;;;;;;20.45;13.03;;;;;;;3.90;70.05;101828.53;1796618;79;21126;-70
2022/11/28 06:36:35;;;;;;;25.68;14.68;;;;;;;3.94;70.03;101831.95;1795208;78;20986;-69
2022/11/28 06:39:03;;;;;;;20.88;14.25;;;;;;;3.95;69.91;101838.08;1797320;79;21046;-69
2022/11/28 06:41:30;;;;;;;29.63;19.40;;;;;;;3.97;69.86;101840.02;1773444;81;21007;-70
2022/11/28 06:43:56;;;;;;;29.00;18.23;;;;;;;3.98;69.85;101833.25;1794817;78;21536;-69
2022/11/28 06:46:23;;;;;;;31.25;18.70;;;;;;;4.06;69.87;101834.97;1803956;79;21093;-69
2022/11/28 06:48:51;;;;;;;27.10;15.85;;;;;;;4.12;69.82;101841.36;1803069;78;21042;-68
2022/11/28 06:51:18;;;;;;;24.87;14.93;;;;;;;4.13;69.68;101826.62;1767208;81;21517;-69
2022/11/28 06:53:45;;;;;;;28.77;14.15;;;;;;;4.16;69.56;101828.09;1784337;79;21049;-69
2022/11/28 06:56:15;;;;;;;24.10;14.95;;;;;;;4.14;69.39;101827.44;1796087;79;21080;-68
2022/11/28 06:58:43;;;;;;;24.87;14.80;;;;;;;4.17;69.31;101822.59;1805169;77;21834;-69
2022/11/28 07:01:17;;;;;;;26.65;16.40;;;;;;;4.17;69.19;101813.85;1794942;80;20895;-69
2022/11/28 07:03:44;;;;;;;22.30;14.85;;;;;;;4.20;69.12;101821.42;1783171;79;21048;-69
2022/11/28 07:06:12;;;;;;;26.15;18.02;;;;;;;4.20;68.98;101816.13;1777320;80;21146;-69
2022/11/28 07:08:40;;;;;;;27.25;17.95;;;;;;;4.16;68.83;101817.00;1764876;81;21449;-69
2022/11/28 07:11:10;;;;;;;29.00;16.95;;;;;;;4.15;68.75;101821.16;1772790;81;21249;-69
2022/11/28 07:13:39;;;;;;;26.97;16.45;;;;;;;4.13;68.70;101816.05;1782099;79;21397;-70
2022/11/28 07:16:07;;;;;;;32.60;16.20;;;;;;;4.16;68.71;101818.32;1772593;81;20943;-70
2022/11/28 07:18:35;;;;;;;28.90;17.65;;;;;;;4.16;68.65;101820.16;1772356;81;21455;-70
2022/11/28 07:21:02;;;;;;;30.17;18.40;;;;;;;4.12;68.63;101824.98;1774199;79;20994;-70
2022/11/28 07:23:29;;;;;;;26.97;15.45;;;;;;;4.03;68.77;101829.23;1800325;79;21957;-70
2022/11/28 07:26:01;;;;;;;21.82;13.80;;;;;;;3.96;68.87;101838.39;1799579;79;20924;-69
2022/11/28 07:28:28;;;;;;;27.27;15.23;;;;;;;3.86;69.00;101836.52;1541425;79;10000208;-70
2022/11/28 07:31:04;;;;;;;23.87;13.65;;;;;;;3.83;69.22;101839.52;1656758;79;10000530;-70
2022/11/28 07:33:34;;;;;;;23.67;13.60;;;;;;;3.87;69.42;101837.64;1744080;81;21131;-70
2022/11/28 07:36:03;;;;;;;20.40;11.78;;;;;;;3.91;69.54;101848.67;1792121;79;21032;-70
2022/11/28 07:38:31;;;;;;;18.95;11.20;;;;;;;3.93;69.70;101848.00;1787397;79;21540;-69
2022/11/28 07:41:11;;;;;;;17.17;11.53;;;;;;;3.94;69.78;101846.48;1793521;79;21017;-69
2022/11/28 07:43:39;;;;;;;15.50;10.55;;;;;;;3.93;69.86;101850.14;1790387;79;20990;-70
2022/11/28 07:46:07;;;;;;;17.95;10.45;;;;;;;3.98;70.06;101848.26;1791079;79;21065;-69
2022/11/28 07:48:34;;;;;;;14.33;10.28;;;;;;;4.07;70.11;101847.69;1791668;79;20983;-69
2022/11/28 07:51:13;;;;;;;16.62;10.20;;;;;;;4.08;70.12;101849.31;1781632;79;21197;-69
2022/11/28 07:53:40;;;;;;;11.48;7.85;;;;;;;4.08;70.09;101851.95;1798815;79;21604;-69
2022/11/28 07:56:12;;;;;;;12.00;8.15;;;;;;;4.07;70.08;101851.14;1803031;79;20994;-70
2022/11/28 07:58:38;;;;;;;11.25;7.55;;;;;;;4.05;70.08;101853.16;1789686;79;20993;-70
2022/11/28 08:01:17;;;;;;;9.85;6.78;;;;;;;4.00;70.09;101853.69;1772997;79;21475;-69
2022/11/28 08:03:45;;;;;;;10.53;6.78;;;;;;;3.96;70.13;101851.09;1810539;78;21197;-70
2022/11/28 08:06:13;;;;;;;8.43;5.83;;;;;;;3.93;70.23;101854.10;1799614;78;21562;-70
2022/11/28 08:08:40;;;;;;;9.70;6.40;;;;;;;4.01;70.39;101857.15;1797463;79;21025;-70
2022/11/28 08:11:08;;;;;;;11.37;5.97;;;;;;;4.08;70.42;101859.89;1554495;77;10000536;-70
2022/11/28 08:13:36;;;;;;;7.87;5.15;;;;;;;4.13;70.38;101853.57;1689914;78;10000094;-69
2022/11/28 08:16:13;;;;;;;8.28;5.30;;;;;;;4.19;70.29;101844.91;1810843;78;21103;-69
2022/11/28 08:18:40;;;;;;;9.40;5.90;;;;;;;4.23;70.14;101847.50;1824150;78;21120;-71
2022/11/28 08:21:13;;;;;;;8.98;5.90;;;;;;;4.23;70.11;101846.17;1819333;78;21165;-70
2022/11/28 08:23:40;;;;;;;8.78;5.97;;;;;;;4.27;70.05;101847.45;1805077;78;21076;-70
2022/11/28 08:26:12;;;;;;;12.15;6.83;;;;;;;4.27;69.98;101847.45;1812911;78;21088;-70
2022/11/28 08:28:41;;;;;;;;;;;;;;;4.27;69.91;101841.34;1825661;78;21049;-71
2022/11/28 08:31:16;;;;;;;9.83;6.62;;;;;;;4.25;69.85;101841.53;1828157;78;20094;-71
2022/11/28 08:33:44;;;;;;;9.25;6.62;;;;;;;4.26;69.86;101837.88;1805632;78;21165;-69
2022/11/28 08:36:13;;;;;;;9.63;6.47;;;;;;;4.27;69.83;101842.16;1827949;78;21041;-70
2022/11/28 08:38:41;;;;;;;9.00;6.20;;;;;;;4.23;69.83;101839.06;1820479;78;21061;-70
2022/11/28 08:41:11;;;;;;;8.75;6.15;;;;;;;4.32;69.77;101849.05;1797480;78;21017;-69
2022/11/28 08:43:38;;;;;;;8.68;5.40;;;;;;;4.38;69.60;101848.83;1805701;78;21196;-70
2022/11/28 08:46:09;;;;;;;6.97;4.90;;;;;;;4.36;69.60;101844.21;1822674;78;21148;-71
2022/11/28 08:48:37;;;;;;;6.47;4.45;;;;;;;4.40;69.52;101840.19;1817906;78;20970;-70
2022/11/28 08:51:06;;;;;;;6.20;4.70;;;;;;;4.47;69.41;101837.11;1791739;79;21096;-71
2022/11/28 08:53:33;;;;;;;7.00;5.20;;;;;;;4.58;69.28;101839.30;1823274;78;22183;-70
2022/11/28 08:55:59;;;;;;;7.15;5.05;;;;;;;4.74;69.13;101841.39;1823122;78;21065;-71
2022/11/28 08:58:26;;;;;;;7.25;4.87;;;;;;;4.84;68.85;101842.75;1810906;78;21195;-69
2022/11/28 09:00:53;;;;;;;7.42;5.15;;;;;;;4.87;68.46;101838.41;1824335;78;20950;-71
2022/11/28 09:03:20;;;;;;;7.62;4.62;;;;;;;4.84;68.28;101837.97;1807705;78;21053;-72
2022/11/28 09:05:47;;;;;;;7.55;4.90;;;;;;;4.84;68.14;101834.81;1681781;77;10000045;-70
2022/11/28 09:08:16;;;;;;;7.37;5.30;;;;;;;4.86;68.07;101839.39;1821653;78;21017;-70
2022/11/28 09:10:44;;;;;;;7.22;5.03;;;;;;;4.87;68.05;101841.06;1813406;78;21075;-70
2022/11/28 09:13:12;;;;;;;6.83;5.12;;;;;;;4.88;67.74;101837.91;1770370;79;21605;-70
2022/11/28 09:15:44;;;;;;;8.30;5.45;;;;;;;4.80;67.66;101840.14;1796219;78;21904;-70
2022/11/28 09:18:11;;;;;;;;;;;;;;;4.79;67.78;101842.48;1774077;81;21044;-71
2022/11/28 09:20:38;;;;;;;8.70;6.35;;;;;;;4.79;67.75;101848.28;1814785;78;21166;-70
2022/11/28 09:23:06;;;;;;;8.58;6.33;;;;;;;4.74;67.76;101843.56;1817678;78;20990;-71
2022/11/28 09:25:38;;;;;;;10.38;7.78;;;;;;;4.73;67.73;101837.11;1827631;78;21132;-70
2022/11/28 09:28:05;;;;;;;9.75;7.70;;;;;;;4.67;67.76;101841.31;1827312;78;21028;-70
2022/11/28 09:30:33;;;;;;;11.63;7.28;;;;;;;4.62;67.81;101833.13;1817547;78;21100;-71
2022/11/28 09:32:59;;;;;;;11.15;8.70;;;;;;;4.64;67.76;101829.78;1797695;78;21551;-70
2022/11/28 09:35:27;;;;;;;10.35;7.78;;;;;;;4.68;67.75;101816.52;1770399;81;21055;-70
2022/11/28 09:37:53;;;;;;;11.83;8.68;;;;;;;4.74;67.55;101814.45;1807736;78;21096;-71
2022/11/28 09:40:41;;;;;;;10.35;7.83;;;;;;;4.76;67.28;101816.38;1808949;78;21025;-70
2022/11/28 09:43:33;;;;;;;9.85;7.08;;;;;;;4.69;67.05;101820.28;1813535;78;21048;-71
2022/11/28 09:46:01;;;;;;;;;;;;;;;4.64;66.94;101834.59;1814023;78;21151;-69
2022/11/28 09:48:50;;;;;;;9.23;7.15;;;;;;;5.04;66.23;101835.02;1775631;78;20159;-71
2022/11/28 09:51:37;;;;;;;8.90;6.12;;;;;;;5.10;66.01;101830.77;1816780;78;21065;-71
2022/11/28 09:54:35;;;;;;;8.65;6.22;;;;;;;5.16;65.82;101832.66;1815210;78;21529;-70
2022/11/28 09:57:03;;;;;;;9.95;6.58;;;;;;;5.16;65.56;101832.16;1814386;78;21021;-70
2022/11/28 09:59:29;;;;;;;10.07;6.50;;;;;;;5.16;65.37;101828.19;1684823;78;10000047;-70
2022/11/28 10:02:18;;;;;;;9.43;6.28;;;;;;;5.18;65.40;101829.33;1814707;78;21049;-70
2022/11/28 10:04:56;;;;;;;10.08;6.45;;;;;;;5.16;65.46;101832.66;1805877;78;21586;-70
2022/11/28 10:07:37;;;;;;;10.28;6.62;;;;;;;4.69;66.64;101828.73;1825238;78;21065;-71
2022/11/28 10:10:49;;;;;;;11.90;8.30;;;;;;;4.66;66.81;101831.23;1811050;78;21547;-70
2022/11/28 10:13:33;;;;;;;9.90;7.00;;;;;;;4.67;66.95;101828.09;1819593;78;21085;-70
2022/11/28 10:16:36;;;;;;;10.45;7.42;;;;;;;4.70;66.92;101824.59;1798721;78;21088;-69
2022/11/28 10:19:06;;;;;;;10.50;6.85;;;;;;;4.67;66.83;101825.44;1803666;78;21106;-70
2022/11/28 10:21:41;;;;;;;9.58;6.80;;;;;;;4.69;66.82;101815.50;1818379;78;21011;-69
2022/11/28 10:24:35;;;;;;;11.60;7.97;;;;;;;4.69;66.85;101818.95;1826255;78;21351;-71
2022/11/28 10:27:04;;;;;;;10.82;7.95;;;;;;;4.71;67.02;101817.47;1824608;78;22200;-69
2022/11/28 10:29:55;;;;;;;11.63;8.30;;;;;;;4.81;67.24;101823.27;1807496;78;21080;-70
2022/11/28 10:32:39;;;;;;;10.43;7.42;;;;;;;4.87;67.17;101829.14;1801590;78;21005;-70
2022/11/28 10:35:23;;;;;;;12.88;8.53;;;;;;;4.89;67.04;101829.76;1820545;78;21108;-70
2022/11/28 10:37:50;;;;;;;14.13;9.58;;;;;;;4.80;67.09;101820.80;1806870;78;22122;-70
2022/11/28 10:40:34;;;;;;;14.43;9.68;;;;;;;4.73;67.04;101823.87;1811559;78;21501;-70
2022/11/28 10:43:11;;;;;;;13.65;9.63;;;;;;;4.65;67.14;101832.77;1821578;78;21010;-70
2022/11/28 10:45:44;;;;;;;15.03;10.23;;;;;;;4.63;67.31;101826.83;1825977;78;21084;-70
2022/11/28 10:48:31;;;;;;;16.87;11.12;;;;;;;4.65;67.56;101823.50;1796646;79;21041;-70
2022/11/28 10:51:10;;;;;;;15.80;10.50;;;;;;;4.64;67.60;101827.13;1808053;78;21175;-71
2022/11/28 10:54:15;;;;;;;18.57;12.20;;;;;;;4.62;67.61;101826.52;1806400;78;20990;-71
2022/11/28 10:57:03;;;;;;;17.40;10.78;;;;;;;4.54;67.71;101830.58;1818608;78;21527;-70
2022/11/28 10:59:59;;;;;;;17.55;11.70;;;;;;;4.50;67.72;101822.20;1823539;78;21029;-69
2022/11/28 11:02:45;;;;;;;20.80;12.90;;;;;;;4.43;67.71;101818.15;1791220;78;21042;-70
2022/11/28 11:05:25;;;;;;;21.95;12.70;;;;;;;4.40;67.82;101823.80;1796256;79;21278;-72
2022/11/28 11:08:00;;;;;;;19.05;12.23;;;;;;;4.37;67.93;101826.81;1812175;78;21054;-70
2022/11/28 11:10:44;;;;;;;20.05;13.18;;;;;;;4.32;68.19;101831.86;1797280;78;20993;-70
2022/11/28 11:13:22;;;;;;;18.52;12.05;;;;;;;4.32;68.29;101835.83;1803039;78;20992;-71
2022/11/28 11:16:09;;;;;;;17.48;12.03;;;;;;;4.30;68.42;101834.36;1814824;78;21051;-70
2022/11/28 11:18:40;;;;;;;20.75;12.58;;;;;;;4.27;68.48;101828.93;1805027;78;21080;-70
2022/11/28 11:34:44;;;;;;;19.47;13.43;;;;;;;4.79;68.21;101820.48;1806533;79;22705;-74
2022/11/28 11:37:30;;;;;;;19.87;12.70;;;;;;;4.72;68.16;101827.03;1758966;81;21504;-74
2022/11/28 11:40:24;;;;;;;20.60;13.55;;;;;;;4.69;68.26;101829.55;1791111;79;21152;-74
2022/11/28 11:42:54;;;;;;;22.00;13.78;;;;;;;4.67;68.29;101824.11;1787484;80;20983;-74
2022/11/28 11:45:33;;;;;;;22.42;14.05;;;;;;;4.63;68.28;101815.73;1791004;80;21012;-74
2022/11/28 11:48:00;;;;;;;22.17;14.35;;;;;;;4.56;68.35;101828.07;1791331;80;21034;-74
2022/11/28 11:50:29;;;;;;;22.45;14.20;;;;;;;4.55;68.44;101822.98;1791708;80;21078;-74
2022/11/28 11:53:11;;;;;;;23.50;14.33;;;;;;;4.52;68.45;101825.48;1791366;80;21485;-74
2022/11/28 11:55:48;;;;;;;23.52;14.20;;;;;;;4.55;68.60;101817.69;1762231;80;20895;-74
2022/11/28 11:58:23;;;;;;;22.22;14.35;;;;;;;4.57;68.55;101814.34;1782594;80;21045;-74
2022/11/28 12:00:51;;;;;;;20.20;13.72;;;;;;;4.59;68.64;101814.98;1783166;80;21446;-75
2022/11/28 12:03:41;;;;;;;18.27;12.15;;;;;;;4.56;68.60;101805.58;1782971;80;21121;-74
2022/11/28 12:06:25;;;;;;;18.70;12.30;;;;;;;4.53;68.46;101811.75;1742169;80;21138;-74
2022/11/28 12:09:12;;;;;;;19.57;12.55;;;;;;;4.44;68.41;101811.88;1778939;80;21517;-73
2022/11/28 12:11:42;;;;;;;17.65;11.43;;;;;;;4.38;68.45;101814.44;1811668;79;21517;-73
2022/11/28 12:14:31;;;;;;;15.38;10.43;;;;;;;4.37;68.67;101820.20;1802431;79;21034;-74
2022/11/28 12:17:35;;;;;;;15.43;10.88;;;;;;;4.35;68.81;101819.59;1781645;78;20960;-74
2022/11/28 12:20:45;;;;;;;15.48;10.40;;;;;;;4.27;68.89;101826.28;1813541;79;21083;-73
2022/11/28 12:23:44;;;;;;;15.50;11.08;;;;;;;4.22;69.05;101822.88;1813191;79;21106;-74
2022/11/28 12:26:19;;;;;;;16.12;11.15;;;;;;;4.09;69.22;101825.35;1758791;80;20983;-74
2022/11/28 12:42:16;;;;;;;15.60;11.10;;;;;;;4.49;69.13;101825.04;1786615;80;22838;-72
2022/11/28 12:45:06;;;;;;;15.88;11.15;;;;;;;4.38;69.05;101832.45;1761759;81;21485;-72
2022/11/28 12:47:56;;;;;;;18.60;12.00;;;;;;;4.28;69.16;101827.95;1756854;81;21205;-74
2022/11/28 12:50:41;;;;;;;17.77;11.65;;;;;;;4.17;69.26;101831.85;1761252;81;20980;-74
2022/11/28 12:53:37;;;;;;;18.60;12.43;;;;;;;4.10;69.43;101836.74;1731052;82;21589;-74
2022/11/28 12:56:48;;;;;;;17.60;11.93;;;;;;;4.06;69.47;101841.58;1760842;81;21042;-76
2022/11/28 12:59:21;;;;;;;18.55;12.55;;;;;;;3.99;69.70;101842.80;1744140;82;21001;-73
2022/11/28 13:02:05;;;;;;;17.10;11.38;;;;;;;3.95;69.88;101845.50;1735918;82;21865;-73
2022/11/28 13:04:55;;;;;;;16.15;10.78;;;;;;;3.94;70.00;101846.48;1756351;81;20987;-73
2022/11/28 13:07:30;;;;;;;17.23;11.28;;;;;;;3.92;70.11;101844.54;1758379;81;21009;-73
2022/11/28 13:10:23;;;;;;;14.05;9.45;;;;;;;3.88;70.13;101849.88;1763872;81;20977;-73
2022/11/28 13:13:19;;;;;;;14.23;9.45;;;;;;;3.87;70.16;101849.53;1730977;83;20990;-73
2022/11/28 13:16:00;;;;;;;12.28;8.78;;;;;;;3.80;70.17;101843.84;1738936;82;21023;-73
2022/11/28 13:18:44;;;;;;;14.55;9.48;;;;;;;3.73;70.19;101844.55;1760966;81;20998;-74
2022/11/28 13:21:26;;;;;;;16.77;9.70;;;;;;;3.69;70.32;101836.67;1729545;82;21084;-73
2022/11/28 13:24:00;;;;;;;15.25;9.58;;;;;;;3.71;70.48;101843.09;1752872;81;21053;-73
2022/11/28 13:26:51;;;;;;;15.28;10.05;;;;;;;3.69;70.54;101842.46;1702039;84;21106;-73
2022/11/28 13:29:52;;;;;;;16.73;10.58;;;;;;;3.69;70.60;101843.78;1730750;83;21122;-73
2022/11/28 13:32:29;;;;;;;13.55;9.60;;;;;;;3.72;70.64;101844.24;1673945;85;20983;-73
2022/11/28 13:34:57;;;;;;;16.15;10.38;;;;;;;3.72;70.66;101839.46;1725341;83;21001;-73
2022/11/28 13:37:54;;;;;;;16.37;10.88;;;;;;;3.75;70.72;101847.00;1703666;83;21061;-73
2022/11/28 13:40:44;;;;;;;15.50;10.82;;;;;;;3.78;70.86;101844.51;1727911;83;21108;-73
2022/11/28 13:43:55;;;;;;;14.85;10.55;;;;;;;3.87;70.81;101857.47;1692329;83;21138;-72
2022/11/28 13:46:22;;;;;;;14.13;9.05;;;;;;;3.88;70.77;101853.84;1729885;83;21045;-72
2022/11/28 13:48:52;;;;;;;13.78;9.35;;;;;;;3.86;70.66;101855.83;1701654;84;21082;-72
2022/11/28 13:51:25;;;;;;;11.33;8.20;;;;;;;3.85;70.70;101854.67;1729640;83;20967;-72
2022/11/28 13:54:22;;;;;;;13.62;8.65;;;;;;;3.89;70.66;101858.12;1701768;84;21118;-72
2022/11/28 13:57:24;;;;;;;12.95;9.03;;;;;;;3.86;70.61;101854.51;1701214;84;21087;-72
2022/11/28 14:00:20;;;;;;;13.78;9.18;;;;;;;3.84;70.63;101859.65;1673392;85;21063;-72
2022/11/28 14:02:51;;;;;;;13.85;9.58;;;;;;;3.84;70.72;101852.53;1701142;84;21102;-72
2022/11/28 14:05:36;;;;;;;12.93;9.20;;;;;;;3.87;70.63;101860.11;1673544;85;21031;-74
2022/11/28 14:08:03;;;;;;;15.25;10.10;;;;;;;3.80;70.60;101859.19;1700489;84;21540;-72
2022/11/28 14:10:57;;;;;;;15.40;10.38;;;;;;;3.79;70.72;101861.52;1718003;83;21162;-73
2022/11/28 14:13:35;;;;;;;13.62;9.85;;;;;;;3.83;70.73;101861.98;1730177;82;21541;-73
2022/11/28 14:16:17;;;;;;;15.50;10.48;;;;;;;3.83;70.69;101861.47;1729804;82;20967;-73
2022/11/28 14:19:23;;;;;;;11.78;8.30;;;;;;;3.80;70.66;101866.30;1730342;83;20977;-73
2022/11/28 14:22:24;;;;;;;16.23;11.40;;;;;;;3.77;70.72;101862.19;1730117;83;21569;-73
2022/11/28 14:24:58;;;;;;;15.43;11.00;;;;;;;3.72;70.79;101865.89;1729936;83;21181;-73
2022/11/28 14:27:29;;;;;;;16.57;12.55;;;;;;;3.74;70.91;101866.00;1729829;81;20935;-73
2022/11/28 14:29:56;;;;;;;19.23;13.22;;;;;;;3.77;70.99;101863.52;1722587;81;21165;-74
2022/11/28 14:32:40;;;;;;;19.55;13.20;;;;;;;3.75;71.11;101862.39;1729850;83;20994;-73
2022/11/28 14:35:37;;;;;;;18.17;12.47;;;;;;;3.75;71.15;101862.39;1729855;82;21000;-74
2022/11/28 14:38:28;;;;;;;20.65;13.28;;;;;;;3.70;71.16;101863.91;1728342;83;21107;-73
2022/11/28 14:41:04;;;;;;;17.77;12.33;;;;;;;3.65;71.25;101868.42;1721634;83;21024;-73
2022/11/28 14:43:41;;;;;;;23.83;15.25;;;;;;;3.63;71.35;101869.59;1727199;83;21200;-73
2022/11/28 14:46:27;;;;;;;32.08;18.67;;;;;;;3.61;71.43;101865.80;1726120;83;21047;-73
2022/11/28 14:49:02;;;;;;;21.27;13.50;;;;;;;3.60;71.52;101862.84;1726059;83;21537;-73
2022/11/28 14:51:52;;;;;;;22.22;13.88;;;;;;;3.60;71.65;101867.31;1726704;83;21246;-74
2022/11/28 14:54:34;;;;;;;18.12;12.40;;;;;;;3.61;71.76;101871.08;1727616;82;20937;-73
2022/11/28 14:57:02;;;;;;;17.00;11.35;;;;;;;3.65;71.85;101864.46;1675659;84;21076;-73
2022/11/28 14:59:33;;;;;;;15.55;11.35;;;;;;;3.67;71.90;101857.16;1730298;83;21536;-73
2022/11/28 15:02:14;;;;;;;14.07;10.13;;;;;;;3.67;71.97;101861.63;1701521;84;21023;-73
2022/11/28 15:04:58;;;;;;;12.68;9.10;;;;;;;3.66;72.06;101859.49;1727780;82;21905;-73
2022/11/28 15:07:50;;;;;;;13.22;9.55;;;;;;;3.65;72.16;101862.30;1691978;84;21055;-73
2022/11/28 15:10:36;;;;;;;;;;;;;;;3.62;72.24;101861.33;1732652;83;21076;-73
2022/11/28 15:13:27;;;;;;;11.78;8.13;;;;;;;3.59;72.38;101865.17;1705081;83;20137;-73
2022/11/28 15:15:55;;;;;;;11.53;7.90;;;;;;;3.51;72.56;101871.33;1713966;83;21030;-73
2022/11/28 15:18:22;;;;;;;12.00;8.40;;;;;;;3.46;72.76;101871.05;1714339;83;22229;-73
2022/11/28 15:21:00;;;;;;;12.33;8.48;;;;;;;3.43;72.91;101869.27;1705395;83;21450;-73
2022/11/28 15:23:30;;;;;;;14.18;9.70;;;;;;;3.42;73.08;101871.56;1730171;83;20986;-73
2022/11/28 15:25:58;;;;;;;15.53;10.43;;;;;;;3.46;73.21;101873.70;1701555;84;21102;-73
2022/11/28 15:28:27;;;;;;;15.80;10.63;;;;;;;3.48;73.30;101874.32;1730106;83;21147;-73
2022/11/28 15:30:56;;;;;;;15.83;10.70;;;;;;;3.55;73.38;101877.58;1703843;83;21873;-73
2022/11/28 15:33:24;;;;;;;14.07;9.70;;;;;;;3.59;73.40;101874.92;1722636;83;21041;-73
2022/11/28 15:36:09;;;;;;;13.30;9.23;;;;;;;3.62;73.48;101873.22;1721695;83;21104;-73
2022/11/28 15:38:33;;;;;;;14.40;9.40;;;;;;;3.66;73.55;101874.53;1693825;83;21033;-72
2022/11/28 15:41:00;;;;;;;15.48;10.32;;;;;;;3.69;73.50;101874.17;1671192;83;20968;-72